• Join FlightAware (Why Join?)
  • Login
  • US Flag 
09:58PM EDT


 

Airport Tracker/Info


-or-


 

Live Flight TrackerFlight Track Log ✈ N71RG ✈ 12-May-2013 ✈ KIND - KJVY

Flight Track Log - Related Links

Times and Time Zones

All times are in EDT time to prevent confusion due to time zone crossing. See the N71RG flight status page for this flight to view local times or setup timezone preferences in your user account.

Time Position Orientation Groundspeed Altitude Reporting Facility
EDT Latitude Longitude Course Direction KTS MPH feet Rate Location/Type
10:29PM 39.7167 -86.3167 218° Southwest 159 183 1,500  Level Indianapolis TRACON
10:30PM 39.7000 -86.3333 218° Southwest 162 186 2,000 1,500 Climbing Indianapolis TRACON
10:31PM 39.6500 -86.3333 180° South 218 251 3,500 1,560 Climbing Indianapolis TRACON
10:32PM 39.5833 -86.3167 169° South 218 251 5,200 1,680 Climbing Indianapolis TRACON
10:33PM 39.5333 -86.3167 180° South 218 251 6,900 1,680 Climbing Indianapolis TRACON
10:34PM 39.4667 -86.3167 180° South 219 252 8,600 1,680 Climbing Indianapolis TRACON
10:35PM 39.4000 -86.3000 169° South 221 254 10,500 1,140 Climbing Indianapolis TRACON
10:36PM 39.3333 -86.3000 180° South 243 280 11,000 240 Climbing Indianapolis TRACON
10:37PM 39.2500 -86.3000 180° South 282 325 11,000  Level Indianapolis TRACON
10:38PM 39.1831 -86.2919 175° South 273 314 11,000  Level Indianapolis Center
10:39PM 39.1075 -86.2844 176° South 274 315 11,000  Level Indianapolis Center
10:40PM 39.0319 -86.2792 177° South 273 314 11,000  Level Indianapolis Center
10:41PM 38.9411 -86.2692 175° South 273 314 11,000  Level Indianapolis Center
10:42PM 38.8711 -86.2608 175° South 273 314 11,000 -60 Level Indianapolis Center
10:43PM 38.7953 -86.2533 176° South 272 313 10,900  Descending Indianapolis Center
10:44PM 38.7189 -86.2444 175° South 272 313 11,000 -240 Climbing Indianapolis Center
10:45PM 38.6431 -86.2364 175° South 272 313 10,500 -840 Descending Indianapolis Center
10:46PM 38.5664 -86.2178 169° South 284 327 9,300 -1,260 Descending Indianapolis Center
10:47PM 38.5256 -86.1303 121° Southeast 284 327 8,000 -1,380 Descending Indianapolis Center
10:48PM 38.4908 -86.0400 116° Southeast 283 326 6,500 -1,560 Descending Indianapolis Center
10:49PM 38.4561 -85.9561 118° Southeast 275 316 4,900 -1,560 Descending Indianapolis Center
10:50PM 38.4225 -85.8758 118° Southeast 263 303 3,400 -900 Descending Indianapolis Center
10:51PM 38.3822 -85.7814 119° Southeast 261 300 3,100 -300 Descending Indianapolis Center
10:53PM 38.3654 -85.7382 123° Southeast  Level Estimated
11:00PM 38.3654 -85.7382 123° Southeast  Level Estimated
11:01PM 38.3654 -85.7382 123° Southeast  Level Estimated
11:02PM 38.3654 -85.7382 123° Southeast  Level Estimated